createdAt,value
2022-12-25T00:00:06.322Z,18.75
2022-12-25T00:02:33.750Z,18.27
2022-12-25T00:05:01.160Z,17.77
2022-12-25T00:07:28.449Z,15.55
2022-12-25T00:09:55.824Z,16.98
2022-12-25T00:12:23.157Z,20.05
2022-12-25T00:14:50.440Z,17.70
2022-12-25T00:17:17.705Z,17.57
2022-12-25T00:19:44.980Z,13.68
2022-12-25T00:22:12.376Z,14.38
2022-12-25T00:24:39.755Z,15.60
2022-12-25T00:27:07.144Z,17.20
2022-12-25T00:29:34.533Z,14.43
2022-12-25T00:32:01.917Z,14.68
2022-12-25T00:34:29.211Z,16.58
2022-12-25T00:36:56.543Z,17.08
2022-12-25T00:39:23.850Z,15.27
2022-12-25T00:42:09.556Z,15.73
2022-12-25T00:44:36.846Z,18.30
2022-12-25T00:47:04.430Z,19.20
2022-12-25T00:49:31.884Z,17.42
2022-12-25T00:51:59.187Z,16.45
2022-12-25T00:54:26.523Z,19.33
2022-12-25T00:56:53.833Z,16.17
2022-12-25T00:59:21.193Z,17.80
2022-12-25T01:01:48.594Z,21.15
2022-12-25T01:04:16.062Z,19.50
2022-12-25T01:06:43.426Z,32.20
2022-12-25T01:09:29.229Z,28.02
2022-12-25T01:11:56.505Z,32.25
2022-12-25T01:14:23.809Z,30.13
2022-12-25T01:16:51.238Z,26.00
2022-12-25T01:19:18.624Z,24.53
2022-12-25T01:21:45.869Z,23.30
2022-12-25T01:24:13.171Z,19.85
2022-12-25T01:26:40.434Z,20.08
2022-12-25T01:29:07.828Z,20.55
2022-12-25T01:31:35.720Z,23.43
2022-12-25T01:34:04.238Z,19.75
2022-12-25T01:36:31.485Z,24.08
2022-12-25T01:38:58.952Z,20.67
2022-12-25T01:41:26.278Z,20.90
2022-12-25T01:44:14.875Z,19.57
2022-12-25T01:46:43.062Z,25.95
2022-12-25T01:49:19.310Z,23.25
2022-12-25T01:51:46.546Z,19.70
2022-12-25T01:54:16.388Z,24.92
2022-12-25T01:56:44.021Z,22.87
2022-12-25T01:59:11.464Z,21.67
2022-12-25T02:01:38.836Z,21.73
2022-12-25T02:04:09.426Z,20.85
2022-12-25T02:06:36.815Z,21.58
2022-12-25T02:09:04.188Z,20.97
2022-12-25T02:11:49.831Z,17.90
2022-12-25T02:14:17.110Z,18.77
2022-12-25T02:16:58.124Z,22.00
2022-12-25T02:19:38.184Z,20.30
2022-12-25T02:22:42.457Z,20.47
2022-12-25T02:25:52.415Z,18.45
2022-12-25T02:28:25.780Z,20.80
2022-12-25T02:31:01.972Z,19.27
2022-12-25T02:33:54.487Z,21.98
2022-12-25T02:36:23.499Z,18.47
2022-12-25T02:39:12.630Z,21.55
2022-12-25T02:41:40.766Z,20.45
2022-12-25T02:44:29.190Z,21.00
2022-12-25T02:47:14.921Z,28.40
2022-12-25T02:50:00.712Z,28.53
2022-12-25T02:52:46.915Z,30.35
2022-12-25T02:55:38.391Z,28.05
2022-12-25T02:58:27.175Z,28.55
2022-12-25T03:01:19.593Z,25.55
2022-12-25T03:04:05.278Z,29.47
2022-12-25T03:06:44.622Z,24.60
2022-12-25T03:09:40.565Z,29.05
2022-12-25T03:12:23.215Z,26.15
2022-12-25T03:15:09.049Z,23.25
2022-12-25T03:17:36.404Z,25.40
2022-12-25T03:20:22.852Z,25.45
2022-12-25T03:23:08.657Z,27.40
2022-12-25T03:25:54.801Z,25.30
2022-12-25T03:28:22.678Z,22.30
2022-12-25T03:31:13.509Z,20.87
2022-12-25T03:34:24.176Z,22.23
2022-12-25T03:37:17.354Z,19.23
2022-12-25T03:39:53.998Z,22.60
2022-12-25T03:42:45.907Z,18.80
2022-12-25T03:45:37.771Z,25.47
2022-12-25T03:48:14.100Z,21.45
2022-12-25T03:51:19.571Z,22.08
2022-12-25T03:54:07.409Z,23.88
2022-12-25T03:56:53.263Z,20.90
2022-12-25T03:59:40.249Z,23.70
2022-12-25T04:02:26.163Z,18.58
2022-12-25T04:05:12.014Z,17.70
2022-12-25T04:07:57.945Z,18.48
2022-12-25T04:10:43.688Z,18.67
2022-12-25T04:13:29.626Z,17.87
2022-12-25T04:16:15.681Z,19.83
2022-12-25T04:19:01.908Z,18.02
2022-12-25T04:21:47.889Z,17.90
2022-12-25T04:24:33.707Z,20.55
2022-12-25T04:27:19.377Z,18.13
2022-12-25T04:30:05.398Z,20.40
2022-12-25T04:32:51.328Z,18.50
2022-12-25T04:35:37.311Z,22.65
2022-12-25T04:38:04.618Z,18.15
2022-12-25T04:40:31.851Z,19.20
2022-12-25T04:42:59.209Z,20.58
2022-12-25T04:45:26.504Z,17.95
2022-12-25T04:47:53.783Z,17.35
2022-12-25T04:50:21.096Z,21.40
2022-12-25T04:52:48.406Z,15.67
2022-12-25T04:55:15.736Z,19.20
2022-12-25T04:57:42.999Z,18.77
2022-12-25T05:00:10.837Z,19.80
2022-12-25T05:02:38.293Z,18.30
2022-12-25T05:05:06.151Z,17.07
2022-12-25T05:07:33.469Z,18.23
2022-12-25T05:10:00.783Z,18.63
2022-12-25T05:12:28.032Z,17.33
2022-12-25T05:14:55.408Z,20.27
2022-12-25T05:17:22.738Z,21.50
2022-12-25T05:19:50.089Z,16.70
2022-12-25T05:22:17.376Z,19.60
2022-12-25T05:24:44.671Z,17.67
2022-12-25T05:27:12.012Z,17.48
2022-12-25T05:29:39.355Z,18.83
2022-12-25T05:32:06.913Z,20.08
2022-12-25T05:34:34.271Z,19.45
2022-12-25T05:37:01.509Z,21.00
2022-12-25T05:39:28.800Z,21.50
2022-12-25T05:41:56.055Z,20.03
2022-12-25T05:44:23.320Z,24.40
2022-12-25T05:46:50.691Z,27.92
2022-12-25T05:49:17.982Z,23.10
2022-12-25T05:51:45.310Z,23.65
2022-12-25T05:54:12.606Z,24.20
2022-12-25T05:56:39.915Z,24.20
2022-12-25T05:59:07.176Z,22.10
2022-12-25T06:01:34.572Z,24.25
2022-12-25T06:04:04.631Z,24.92
2022-12-25T06:06:35.829Z,22.13
2022-12-25T06:09:03.091Z,23.60
2022-12-25T06:11:30.472Z,25.70
2022-12-25T06:13:57.752Z,24.40
2022-12-25T06:16:25.065Z,26.30
2022-12-25T06:18:52.442Z,30.20
2022-12-25T06:21:19.710Z,30.08
2022-12-25T06:23:47.151Z,29.00
2022-12-25T06:26:16.493Z,29.52
2022-12-25T06:28:44.046Z,23.52
2022-12-25T06:31:16.452Z,24.80
2022-12-25T06:33:43.874Z,27.85
2022-12-25T06:36:16.232Z,25.25
2022-12-25T06:38:43.640Z,26.08
2022-12-25T06:41:12.556Z,26.30
2022-12-25T06:43:39.835Z,23.60
2022-12-25T06:46:09.799Z,20.92
2022-12-25T06:48:37.623Z,19.75
2022-12-25T06:51:05.769Z,19.35
2022-12-25T06:53:39.885Z,19.88
2022-12-25T06:56:16.001Z,19.10
2022-12-25T06:58:47.471Z,16.90
2022-12-25T07:01:21.590Z,16.85
2022-12-25T07:03:50.273Z,17.50
2022-12-25T07:06:17.588Z,19.58
2022-12-25T07:08:44.946Z,21.20
2022-12-25T07:11:12.273Z,20.10
2022-12-25T07:13:39.554Z,18.00
2022-12-25T07:16:07.957Z,21.70
2022-12-25T07:18:35.449Z,23.63
2022-12-25T07:21:10.835Z,21.10
2022-12-25T07:23:38.164Z,19.92
2022-12-25T07:26:05.708Z,20.48
2022-12-25T07:28:33.264Z,17.95
2022-12-25T07:31:04.701Z,19.13
2022-12-25T07:33:31.971Z,18.13
2022-12-25T07:35:59.286Z,19.20
2022-12-25T07:38:26.623Z,19.42
2022-12-25T07:40:53.981Z,17.10
2022-12-25T07:43:21.287Z,15.98
2022-12-25T07:45:48.655Z,17.43
2022-12-25T07:48:16.975Z,16.88
2022-12-25T07:50:44.548Z,15.05
2022-12-25T07:53:11.786Z,16.08
2022-12-25T07:55:39.298Z,12.98
2022-12-25T07:58:07.236Z,13.10
2022-12-25T08:00:34.644Z,17.23
2022-12-25T08:03:02.119Z,16.52
2022-12-25T08:05:29.567Z,17.80
2022-12-25T08:07:58.099Z,16.58
2022-12-25T08:10:25.801Z,16.77
2022-12-25T08:12:56.227Z,19.40
2022-12-25T08:15:23.534Z,17.38
2022-12-25T08:17:50.847Z,23.33
2022-12-25T08:20:18.115Z,22.50
2022-12-25T08:22:45.582Z,19.77
2022-12-25T08:25:12.906Z,18.15
2022-12-25T08:27:40.185Z,21.70
2022-12-25T08:30:08.132Z,17.55
2022-12-25T08:32:35.651Z,20.17
2022-12-25T08:35:02.888Z,22.50
2022-12-25T08:37:30.381Z,21.30
2022-12-25T08:39:57.711Z,25.48
2022-12-25T08:42:25.001Z,22.13
2022-12-25T08:44:52.320Z,19.08
2022-12-25T08:47:19.554Z,16.10
2022-12-25T08:49:46.860Z,19.52
2022-12-25T08:52:14.543Z,29.58
2022-12-25T08:54:41.825Z,35.72
2022-12-25T08:57:09.138Z,24.98
2022-12-25T08:59:36.389Z,24.53
2022-12-25T09:02:03.823Z,22.30
2022-12-25T09:04:31.162Z,19.25
2022-12-25T09:06:58.486Z,20.25
2022-12-25T09:09:29.085Z,19.92
2022-12-25T09:11:56.472Z,26.93
2022-12-25T09:14:23.724Z,29.38
2022-12-25T09:16:51.310Z,32.22
2022-12-25T09:19:18.866Z,26.75
2022-12-25T09:21:46.173Z,28.75
2022-12-25T09:24:13.448Z,21.23
2022-12-25T09:26:40.928Z,20.65
2022-12-25T09:29:08.255Z,16.15
2022-12-25T09:31:35.557Z,16.35
2022-12-25T09:34:02.789Z,21.40
2022-12-25T09:36:30.099Z,19.50
2022-12-25T09:38:57.388Z,17.73
2022-12-25T09:41:31.699Z,16.55
2022-12-25T09:44:21.030Z,18.20
2022-12-25T09:46:51.294Z,23.20
2022-12-25T09:49:30.868Z,25.17
2022-12-25T09:52:01.101Z,24.55
2022-12-25T09:54:38.955Z,24.52
2022-12-25T09:57:06.245Z,19.73
2022-12-25T09:59:33.553Z,22.92
2022-12-25T10:02:19.738Z,19.67
2022-12-25T10:05:17.900Z,21.00
2022-12-25T10:07:54.186Z,19.88
2022-12-25T10:10:21.464Z,21.83
2022-12-25T10:12:56.182Z,24.60
2022-12-25T10:15:48.865Z,23.17
2022-12-25T10:18:25.362Z,26.25
2022-12-25T10:20:54.338Z,23.77
2022-12-25T10:23:28.548Z,27.05
2022-12-25T10:25:56.016Z,25.05
2022-12-25T10:28:36.290Z,23.20
2022-12-25T10:31:14.409Z,24.85
2022-12-25T10:33:41.714Z,26.25
2022-12-25T10:36:09.833Z,26.30
2022-12-25T10:38:37.211Z,22.17
2022-12-25T10:41:34.346Z,22.53
2022-12-25T10:44:12.306Z,18.83
2022-12-25T10:46:39.746Z,23.05
2022-12-25T10:49:13.931Z,20.77
2022-12-25T10:51:41.269Z,20.95
2022-12-25T10:54:26.021Z,21.13
2022-12-25T10:56:59.379Z,23.92
2022-12-25T10:59:27.929Z,21.98
2022-12-25T11:01:55.877Z,25.10
2022-12-25T11:04:28.671Z,22.73
2022-12-25T11:07:05.614Z,23.00
2022-12-25T11:09:33.559Z,21.10
2022-12-25T11:12:00.941Z,27.58
2022-12-25T11:14:29.256Z,21.48
2022-12-25T11:17:06.669Z,21.83
2022-12-25T11:19:34.006Z,19.67
2022-12-25T11:22:02.079Z,20.25
2022-12-25T11:24:32.978Z,21.40
2022-12-25T11:27:01.966Z,21.30
2022-12-25T11:29:56.614Z,19.48
2022-12-25T11:32:42.167Z,20.70
2022-12-25T11:35:14.278Z,21.77
2022-12-25T11:37:52.151Z,24.45
2022-12-25T11:40:36.080Z,22.25
2022-12-25T11:43:08.465Z,23.55
2022-12-25T11:45:37.774Z,22.37
2022-12-25T11:48:05.107Z,21.77
2022-12-25T11:50:35.405Z,19.52
2022-12-25T11:53:05.571Z,21.85
2022-12-25T11:55:40.519Z,19.35
2022-12-25T11:58:29.299Z,24.60
2022-12-25T12:00:57.558Z,15.57
2022-12-25T12:03:35.826Z,18.42
2022-12-25T12:06:08.850Z,16.00
2022-12-25T12:08:36.150Z,17.25
2022-12-25T12:11:31.910Z,15.67
2022-12-25T12:14:25.433Z,14.32
2022-12-25T12:16:52.876Z,15.25
2022-12-25T12:19:30.688Z,15.02
2022-12-25T12:22:00.186Z,14.60
2022-12-25T12:24:45.528Z,16.10
2022-12-25T12:27:26.756Z,16.58
2022-12-25T12:29:56.165Z,16.52
2022-12-25T12:32:47.847Z,15.82
2022-12-25T12:35:30.000Z,17.95
2022-12-25T12:38:07.507Z,16.77
2022-12-25T12:40:54.968Z,19.83
2022-12-25T12:43:52.704Z,15.60
2022-12-25T12:46:31.605Z,18.05
2022-12-25T12:49:11.413Z,18.73
2022-12-25T12:51:39.125Z,18.03
2022-12-25T12:54:09.367Z,21.58
2022-12-25T12:56:37.393Z,19.23
2022-12-25T12:59:04.657Z,16.65
2022-12-25T13:01:40.572Z,17.58
2022-12-25T13:04:30.072Z,17.37
2022-12-25T13:07:28.349Z,21.17
2022-12-25T13:10:01.796Z,16.60
2022-12-25T13:12:29.157Z,17.13
2022-12-25T13:14:56.449Z,17.90
2022-12-25T13:17:25.164Z,17.83
2022-12-25T13:19:56.103Z,18.33
2022-12-25T13:22:25.744Z,19.83
2022-12-25T13:24:57.810Z,17.17
2022-12-25T13:27:27.577Z,19.20
2022-12-25T13:29:54.856Z,18.83
2022-12-25T13:32:32.456Z,19.10
2022-12-25T13:34:59.916Z,17.67
2022-12-25T13:37:28.489Z,18.77
2022-12-25T13:40:00.214Z,20.45
2022-12-25T13:42:32.044Z,18.80
2022-12-25T13:45:14.678Z,18.70
2022-12-25T13:47:51.409Z,21.38
2022-12-25T13:50:26.252Z,19.25
2022-12-25T13:52:54.165Z,19.88
2022-12-25T13:55:22.315Z,18.23
2022-12-25T13:57:59.722Z,18.38
2022-12-25T14:01:00.347Z,22.60
2022-12-25T14:03:46.598Z,26.52
2022-12-25T14:06:40.232Z,26.05
2022-12-25T14:09:07.519Z,23.17
2022-12-25T14:11:35.070Z,28.00
2022-12-25T14:14:04.346Z,27.58
2022-12-25T14:16:31.746Z,24.30
2022-12-25T14:19:01.136Z,28.60
2022-12-25T14:21:41.112Z,27.07
2022-12-25T14:24:14.630Z,35.90
2022-12-25T14:26:41.933Z,34.88
2022-12-25T14:29:16.808Z,31.67
2022-12-25T14:31:45.929Z,31.77
2022-12-25T14:34:17.928Z,32.63
2022-12-25T14:36:45.326Z,31.25
2022-12-25T14:39:34.899Z,31.55
2022-12-25T14:42:11.780Z,29.38
2022-12-25T14:44:39.949Z,29.25
2022-12-25T14:47:20.332Z,32.53
2022-12-25T14:49:47.775Z,35.22
2022-12-25T14:52:28.646Z,35.13
2022-12-25T14:54:58.414Z,37.67
2022-12-25T14:57:27.927Z,33.15
2022-12-25T15:00:00.157Z,32.10
2022-12-25T15:02:27.778Z,34.33
2022-12-25T15:04:55.252Z,33.25
2022-12-25T15:07:31.537Z,29.70
2022-12-25T15:10:27.144Z,29.77
2022-12-25T15:12:46.152Z,25.20
2022-12-25T15:15:13.422Z,25.73
2022-12-25T15:17:40.737Z,27.27
2022-12-25T15:20:13.325Z,26.13
2022-12-25T15:23:10.307Z,25.60
2022-12-25T15:25:29.015Z,25.77
2022-12-25T15:27:56.444Z,26.52
2022-12-25T15:30:23.979Z,28.13
2022-12-25T15:32:51.395Z,31.38
2022-12-25T15:35:19.870Z,34.67
2022-12-25T15:37:47.473Z,32.57
2022-12-25T15:40:16.244Z,27.65
2022-12-25T15:42:44.797Z,29.15
2022-12-25T15:45:30.671Z,29.83
2022-12-25T15:47:58.194Z,29.45
2022-12-25T15:50:25.508Z,29.07
2022-12-25T15:52:52.839Z,29.05
2022-12-25T15:55:20.170Z,30.50
2022-12-25T15:57:48.641Z,31.50
2022-12-25T16:00:22.761Z,28.90
2022-12-25T16:02:50.372Z,33.57
2022-12-25T16:05:17.953Z,33.30
2022-12-25T16:07:45.322Z,32.80
2022-12-25T16:10:18.089Z,30.92
2022-12-25T16:12:45.633Z,28.85
2022-12-25T16:15:14.474Z,31.33
2022-12-25T16:17:41.766Z,31.02
2022-12-25T16:20:09.526Z,45.65
2022-12-25T16:22:40.125Z,43.10
2022-12-25T16:25:12.427Z,53.03
2022-12-25T16:27:39.700Z,52.80
2022-12-25T16:30:07.614Z,49.45
2022-12-25T16:32:34.880Z,52.30
2022-12-25T16:35:02.403Z,40.63
2022-12-25T16:37:29.822Z,40.60
2022-12-25T16:39:57.123Z,44.33
2022-12-25T16:42:24.457Z,37.35
2022-12-25T16:44:51.866Z,39.40
2022-12-25T16:47:19.193Z,38.00
2022-12-25T16:49:46.868Z,33.63
2022-12-25T16:52:14.134Z,33.50
2022-12-25T16:54:41.482Z,37.05
2022-12-25T16:57:08.766Z,39.63
2022-12-25T16:59:36.105Z,37.50
2022-12-25T17:02:03.614Z,35.95
2022-12-25T17:04:31.147Z,36.50
2022-12-25T17:06:58.541Z,37.65
2022-12-25T17:09:25.830Z,42.28
2022-12-25T17:11:53.062Z,38.65
2022-12-25T17:14:20.363Z,41.97
2022-12-25T17:16:47.675Z,40.47
2022-12-25T17:19:20.003Z,40.78
2022-12-25T17:21:47.447Z,43.08
2022-12-25T17:24:15.169Z,52.63
2022-12-25T17:26:44.013Z,55.08
2022-12-25T17:29:13.537Z,56.03
2022-12-25T17:31:43.245Z,60.35
2022-12-25T17:34:10.577Z,57.67
2022-12-25T17:36:37.884Z,62.78
2022-12-25T17:39:05.560Z,61.10
2022-12-25T17:41:32.884Z,62.10
2022-12-25T17:44:00.251Z,54.97
2022-12-25T17:46:28.664Z,61.38
2022-12-25T17:48:57.361Z,58.90
2022-12-25T17:51:25.512Z,61.28
2022-12-25T17:53:54.488Z,64.27
2022-12-25T17:56:22.322Z,55.63
2022-12-25T17:58:54.072Z,53.53
2022-12-25T18:01:21.709Z,97.22
2022-12-25T18:03:49.324Z,82.82
2022-12-25T18:06:18.318Z,62.43
2022-12-25T18:08:46.093Z,60.72
2022-12-25T18:11:18.292Z,69.28
2022-12-25T18:13:48.556Z,64.35
2022-12-25T18:16:16.192Z,66.13
2022-12-25T18:18:51.131Z,62.73
2022-12-25T18:21:20.292Z,66.32
2022-12-25T18:23:47.776Z,61.25
2022-12-25T18:26:15.173Z,51.65
2022-12-25T18:28:43.988Z,53.58
2022-12-25T18:31:15.897Z,53.13
2022-12-25T18:33:43.477Z,56.30
2022-12-25T18:36:14.674Z,52.83
2022-12-25T18:38:42.107Z,42.05
2022-12-25T18:41:09.746Z,43.67
2022-12-25T18:43:52.222Z,44.93
2022-12-25T18:46:26.838Z,40.92
2022-12-25T18:48:55.296Z,42.83
2022-12-25T18:51:22.631Z,41.20
2022-12-25T18:53:50.118Z,44.47
2022-12-25T18:56:18.072Z,37.57
2022-12-25T18:58:46.333Z,46.10
2022-12-25T19:01:19.353Z,39.10
2022-12-25T19:03:49.311Z,45.75
2022-12-25T19:06:22.173Z,45.55
2022-12-25T19:08:49.470Z,41.20
2022-12-25T19:11:16.904Z,41.80
2022-12-25T19:13:44.294Z,48.10
2022-12-25T19:16:11.867Z,42.50
2022-12-25T19:18:39.513Z,47.08
2022-12-25T19:21:07.754Z,48.87
2022-12-25T19:23:35.193Z,42.47
2022-12-25T19:26:05.288Z,45.05
2022-12-25T19:28:32.717Z,42.20
2022-12-25T19:31:00.591Z,42.55
2022-12-25T19:33:27.998Z,42.57
2022-12-25T19:36:00.098Z,41.25
2022-12-25T19:38:27.590Z,44.33
2022-12-25T19:41:01.046Z,46.17
2022-12-25T19:43:35.746Z,45.97
2022-12-25T19:46:03.107Z,42.50
2022-12-25T19:48:30.870Z,48.53
2022-12-25T19:50:58.180Z,50.55
2022-12-25T19:53:25.697Z,54.38
2022-12-25T19:55:53.185Z,52.10
2022-12-25T19:58:20.952Z,50.73
2022-12-25T20:01:01.919Z,50.45
2022-12-25T20:03:29.337Z,50.78
2022-12-25T20:05:56.762Z,53.65
2022-12-25T20:08:24.213Z,51.67
2022-12-25T20:10:51.584Z,45.70
2022-12-25T20:13:18.943Z,55.40
2022-12-25T20:15:46.286Z,56.00
2022-12-25T20:18:13.738Z,57.15
2022-12-25T20:20:41.005Z,55.22
2022-12-25T20:23:08.361Z,68.50
2022-12-25T20:25:42.490Z,61.67
2022-12-25T20:28:09.879Z,51.60
2022-12-25T20:30:39.995Z,52.67
2022-12-25T20:33:07.351Z,51.78
2022-12-25T20:35:34.725Z,50.73
2022-12-25T20:38:02.185Z,55.53
2022-12-25T20:40:29.469Z,54.58
2022-12-25T20:42:56.771Z,51.00
2022-12-25T20:45:24.081Z,46.75
2022-12-25T20:47:51.385Z,48.73
2022-12-25T20:50:18.659Z,48.85
2022-12-25T20:52:45.988Z,46.95
2022-12-25T20:55:14.267Z,49.75
2022-12-25T20:57:41.565Z,49.70
2022-12-25T21:00:09.519Z,46.37
2022-12-25T21:02:38.137Z,46.78
2022-12-25T21:05:07.148Z,49.95
2022-12-25T21:07:34.518Z,47.53
2022-12-25T21:10:01.828Z,44.97
2022-12-25T21:12:29.217Z,47.20
2022-12-25T21:14:56.530Z,40.38
2022-12-25T21:17:23.878Z,46.67
2022-12-25T21:19:51.195Z,45.22
2022-12-25T21:22:18.546Z,46.42
2022-12-25T21:24:45.946Z,40.17
2022-12-25T21:27:13.275Z,46.45
2022-12-25T21:29:40.566Z,44.45
2022-12-25T21:32:26.307Z,42.97
2022-12-25T21:34:53.579Z,45.08
2022-12-25T21:37:20.846Z,49.17
2022-12-25T21:39:51.030Z,46.95
2022-12-25T21:42:18.382Z,45.60
2022-12-25T21:44:46.020Z,41.85
2022-12-25T21:47:13.370Z,47.17
2022-12-25T21:49:59.390Z,45.63
2022-12-25T21:52:26.727Z,47.25
2022-12-25T21:54:54.021Z,46.30
2022-12-25T21:57:21.657Z,50.83
2022-12-25T21:59:48.990Z,45.10
2022-12-25T22:02:16.438Z,42.70
2022-12-25T22:04:43.871Z,48.22
2022-12-25T22:07:19.811Z,49.63
2022-12-25T22:09:48.141Z,46.80
2022-12-25T22:12:34.785Z,45.10
2022-12-25T22:15:06.699Z,43.13
2022-12-25T22:17:57.931Z,44.13
2022-12-25T22:20:27.775Z,44.35
2022-12-25T22:22:55.115Z,41.85
2022-12-25T22:25:24.038Z,37.00
2022-12-25T22:27:51.592Z,41.00
2022-12-25T22:30:24.337Z,35.83
2022-12-25T22:32:52.428Z,38.97
2022-12-25T22:35:20.212Z,39.53
2022-12-25T22:37:48.340Z,44.53
2022-12-25T22:40:16.879Z,42.87
2022-12-25T22:42:44.245Z,43.97
2022-12-25T22:45:11.766Z,48.95
2022-12-25T22:47:39.096Z,37.22
2022-12-25T22:50:06.785Z,45.22
2022-12-25T22:52:34.216Z,40.07
2022-12-25T22:55:02.583Z,39.78
2022-12-25T22:57:29.917Z,42.80
2022-12-25T22:59:57.289Z,38.30
2022-12-25T23:02:24.710Z,37.70
2022-12-25T23:04:52.150Z,40.13
2022-12-25T23:07:19.536Z,36.80
2022-12-25T23:09:46.786Z,41.30
2022-12-25T23:12:32.630Z,37.55
2022-12-25T23:14:59.921Z,32.08
2022-12-25T23:17:45.788Z,34.60
2022-12-25T23:20:32.438Z,32.72
2022-12-25T23:23:18.322Z,35.15
2022-12-25T23:26:04.533Z,37.78
2022-12-25T23:28:54.592Z,36.53
2022-12-25T23:31:25.966Z,33.40
2022-12-25T23:33:53.430Z,37.08
2022-12-25T23:36:20.704Z,36.38
2022-12-25T23:38:47.987Z,37.50
2022-12-25T23:41:15.291Z,34.45
2022-12-25T23:43:42.638Z,35.57
2022-12-25T23:46:09.986Z,37.08
2022-12-25T23:48:37.422Z,35.45
2022-12-25T23:51:05.409Z,32.83
2022-12-25T23:53:33.191Z,40.28
2022-12-25T23:56:00.615Z,34.47
2022-12-25T23:58:28.181Z,35.20
